Latest Coastal Weather Observations for South Johnstone

IDQ60701

Issued at 4:55 pm EST Wednesday 1 October 2014 (issued every 10 minutes, with the page automatically refreshed every 10 minutes)

About coastal observations | Map of coastal stations | Coastal observations for QLD | Marine services | Other Formats
Station Details ID: 032037 Name: SOUTH JOHNSTONE EXP STN Lat: -17.61 Lon: 146.00 Height: 18.3 m
Data from the previous 72 hours. | See also: Recent months at South Johnstone
Date/Time
EST
Temp

°C
Wind Pressure Rain
since 9am
mm
Weather Cloud Vis
km
Sea
Height
m
Swell
Dir
 
Speed
knots
Gust
knots
hPa Trend Height
m
Period
s
Dir
01/04:30pm 25.3 SE 10 14 1015.3 - 0.0 - - - - - - -
01/04:00pm 26.0 ESE 9 13 1015.3 - 0.0 - - - - - - -
01/03:30pm 26.2 SE 9 15 1015.1 - 0.0 - - - - - - -
01/03:00pm 26.7 ESE 9 14 1015.1 - 0.0 - - - - - - -
01/02:30pm 25.8 SE 10 16 1015.4 - 0.0 - - - - - - -
01/02:00pm 26.5 SE 9 15 1015.6 - 0.0 - - - - - - -
01/01:30pm 26.6 ESE 10 15 1015.9 - 0.0 - - - - - - -
01/01:00pm 26.4 SSE 10 16 1016.3 - 0.0 - - - - - - -
01/12:30pm 27.5 SE 10 16 1016.7 - 0.0 - - - - - - -
01/12:00pm 26.8 SSE 8 13 1017.1 - 0.0 - - - - - - -
01/11:30am 26.9 SE 8 14 1017.8 - 0.0 - - - - - - -
01/11:00am 27.2 E 7 13 1018.0 - 0.0 - - - - - - -
01/10:30am 27.1 SE 8 13 1018.3 - 0.0 - - - - - - -
01/10:00am 26.6 ESE 8 13 1018.5 - 0.0 - - - - - - -
01/09:30am 26.1 S 6 10 1018.6 - 0.0 - - - - - - -
01/09:00am 25.1 S 5 11 1018.7 - 0.0 - - - - - - -
01/08:30am 23.9 CALM 0 0 1018.9 - 0.0 - - - - - - -
01/08:00am 22.1 CALM 0 0 1018.9 - 0.0 - - - - - - -
01/07:30am 20.6 CALM 0 0 1018.7 - 0.0 - - - - - - -
01/07:00am 18.5 CALM 0 0 1018.3 - 0.0 - - - - - - -
01/06:30am 17.5 CALM 0 0 1017.8 - 0.0 - - - - - - -
01/06:00am 17.1 CALM 0 0 1017.5 - 0.0 - - - - - - -
01/05:30am 17.0 CALM 0 0 1017.5 - 0.0 - - - - - - -
01/05:00am 17.1 CALM 0 0 1017.3 - 0.0 - - - - - - -
01/04:30am 16.9 CALM 0 0 1016.9 - 0.0 - - - - - - -
01/04:00am 16.3 WSW 7 9 1016.7 - 0.0 - - - - - - -
01/03:30am 16.3 W 4 6 1016.7 - 0.0 - - - - - - -
01/03:00am 16.6 CALM 0 3 1016.7 - 0.0 - - - - - - -
01/02:30am 16.6 CALM 0 4 1016.8 - 0.0 - - - - - - -
01/02:00am 16.5 CALM 0 3 1017.1 - 0.0 - - - - - - -
01/01:30am 16.5 CALM 0 3 1017.4 - 0.0 - - - - - - -
01/01:00am 16.7 SW 0 0 1017.5 - 0.0 - - - - - - -
01/12:30am 17.0 CALM 0 2 1017.9 - 0.0 - - - - - - -
01/12:00am 17.1 NW 0 0 1018.2 - 0.0 - - - - - - -
 
Date/Time
EST
Temp

°C
Wind Pressure Rain
since 9am
mm
Weather Cloud Vis
km
Sea
Height
m
Swell
Dir
 
Speed
knots
Gust
knots
hPa Trend Height
m
Period
s
Dir
30/11:30pm 17.3 WNW 4 5 1018.4 - 0.0 - - - - - - -
30/11:00pm 17.6 CALM 0 0 1018.5 - 0.0 - - - - - - -
30/10:30pm 17.9 WNW 2 6 1018.8 - 0.0 - - - - - - -
30/10:00pm 18.4 W 4 5 1018.9 - 0.0 - - - - - - -
30/09:30pm 18.9 W 5 8 1018.8 - 0.0 - - - - - - -
30/09:00pm 19.6 WSW 5 8 1018.6 - 0.0 - - - - - - -
30/08:30pm 19.8 W 2 6 1018.5 - 0.0 - - - - - - -
30/08:00pm 21.9 SSW 4 5 1018.3 - 0.0 - - - - - - -
30/07:30pm 21.8 S 5 6 1017.9 - 0.0 - - - - - - -
30/07:00pm 21.8 SSE 4 7 1017.6 - 0.0 - - - - - - -
30/06:30pm 22.3 S 6 7 1017.3 - 0.0 - - - - - - -
30/06:00pm 22.9 SSE 6 9 1017.0 - 0.0 - - - - - - -
30/05:30pm 24.0 SE 7 11 1016.8 - 0.0 - - - - - - -
30/05:00pm 24.9 SE 7 11 1016.4 - 0.0 - - - - - - -
30/04:30pm 25.6 SE 7 10 1016.2 - 0.0 - - - - - - -
30/04:00pm 25.6 ESE 8 12 1016.1 - 0.0 - - - - - - -
30/03:30pm 26.1 ESE 7 11 1016.1 - 0.0 - - - - - - -
30/03:00pm 26.2 ESE 8 13 1016.0 - 0.0 - - - - - - -
30/02:30pm 26.7 ESE 8 13 1016.1 - 0.0 - - - - - - -
30/02:00pm 26.7 SE 8 15 1016.3 - 0.0 - - - - - - -
30/01:30pm 27.2 SSE 7 12 1016.5 - 0.0 - - - - - - -
30/01:00pm 26.7 ESE 8 12 1017.1 - 0.0 - - - - - - -
30/12:30pm 26.6 ESE 8 11 1017.6 - 0.0 - - - - - - -
30/12:00pm 26.4 SE 6 11 1018.1 - 0.0 - - - - - - -
30/11:30am 25.5 SSE 10 15 1018.9 - 0.0 - - - - - - -
30/11:00am 26.8 SE 9 13 1019.3 - 0.0 - - - - - - -
30/10:30am 26.3 ESE 10 15 1019.7 - 0.0 - - - - - - -
30/10:00am 25.8 SE 10 16 1019.8 - 0.0 - - - - - - -
30/09:30am 25.0 SE 10 18 1019.9 - 0.0 - - - - - - -
30/09:00am 25.3 SSE 11 15 1019.8 - 0.0 - - - - - - -
30/08:30am 25.0 SSE 10 15 1019.7 - 0.0 - - - - - - -
30/08:00am 24.0 S 7 11 1019.5 - 0.0 - - - - - - -
30/07:30am 23.3 SSE 8 14 1019.3 - 0.0 - - - - - - -
30/07:00am 22.5 S 7 12 1018.8 - 0.0 - - - - - - -
30/06:30am 22.0 S 6 9 1018.4 - 0.0 - - - - - - -
30/06:00am 21.7 S 5 9 1017.9 - 0.0 - - - - - - -
30/05:30am 20.8 SSE 4 6 1017.8 - 0.0 - - - - - - -
30/05:00am 21.7 S 7 11 1017.4 - 0.0 - - - - - - -
30/04:30am 21.1 S 3 5 1017.0 - 0.0 - - - - - - -
30/04:00am 19.8 CALM 0 4 1016.7 - 0.0 - - - - - - -
30/03:30am 19.5 WNW 2 4 1016.5 - 0.0 - - - - - - -
30/03:00am 19.6 W 4 7 1016.7 - 0.0 - - - - - - -
30/02:30am 19.5 WSW 4 6 1016.8 - 0.0 - - - - - - -
30/02:00am 19.3 W 3 5 1017.0 - 0.0 - - - - - - -
30/01:30am 19.4 W 2 5 1017.3 - 0.0 - - - - - - -
30/01:00am 19.5 SW 4 8 1017.6 - 0.0 - - - - - - -
30/12:30am 19.2 W 4 7 1017.7 - 0.0 - - - - - - -
30/12:00am 19.3 WSW 5 8 1017.9 - 0.0 - - - - - - -
 
Date/Time
EST
Temp

°C
Wind Pressure Rain
since 9am
mm
Weather Cloud Vis
km
Sea
Height
m
Swell
Dir
 
Speed
knots
Gust
knots
hPa Trend Height
m
Period
s
Dir
29/11:30pm 19.7 W 2 4 1018.2 - 0.0 - - - - - - -
29/11:00pm 21.8 S 4 6 1018.3 - 0.0 - - - - - - -
29/10:30pm 21.7 S 4 6 1018.4 - 0.0 - - - - - - -
29/10:00pm 21.7 S 4 6 1018.4 - 0.0 - - - - - - -
29/09:30pm 20.5 CALM 0 0 1018.2 - 0.0 - - - - - - -
29/09:00pm 20.2 CALM 0 0 1018.0 - 0.0 - - - - - - -
29/08:30pm 20.6 CALM 0 0 1017.9 - 0.0 - - - - - - -
29/08:00pm 22.2 CALM 0 0 1017.7 - 0.0 - - - - - - -
29/07:30pm 21.7 CALM 0 0 1017.4 - 0.0 - - - - - - -
29/07:00pm 21.7 CALM 0 2 1017.0 - 0.0 - - - - - - -
29/06:30pm 22.6 SSE 4 8 1016.9 - 0.0 - - - - - - -
29/06:00pm 23.4 SSE 6 9 1016.6 - 0.0 - - - - - - -
29/05:30pm 24.3 SE 8 12 1016.3 - 0.0 - - - - - - -
29/05:00pm 25.0 SE 9 13 1016.1 - 0.0 - - - - - - -
29/04:30pm 25.5 SE 8 13 1016.0 - 0.0 - - - - - - -
29/04:00pm 26.1 SE 9 14 1015.8 - 0.0 - - - - - - -
29/03:30pm 26.3 SE 9 14 1015.7 - 0.0 - - - - - - -
29/03:00pm 25.5 ESE 10 14 1015.9 - 0.0 - - - - - - -
29/02:30pm 27.2 SSE 9 15 1016.1 - 0.0 - - - - - - -
29/02:00pm 26.3 SE 10 16 1016.4 - 0.0 - - - - - - -
29/01:30pm 26.7 SE 11 16 1016.6 - 0.0 - - - - - - -
29/01:00pm 27.6 SE 9 16 1016.9 - 0.0 - - - - - - -
29/12:30pm 27.2 ESE 11 18 1017.4 - 0.0 - - - - - - -
29/12:00pm 27.2 ESE 10 14 1017.7 - 0.0 - - - - - - -
29/11:30am 26.8 ESE 12 19 1018.4 - 0.0 - - - - - - -
29/11:00am 26.6 SE 10 16 1018.7 - 0.0 - - - - - - -
29/10:30am 26.7 SE 11 18 1018.9 - 0.0 - - - - - - -
29/10:00am 24.9 SE 9 17 1018.9 - 0.0 - - - - - - -
29/09:30am 24.6 S 5 9 1019.0 - 0.0 - - - - - - -
29/09:00am 23.9 CALM 0 2 1018.9 - 0.0 - - - - - - -
29/08:30am 21.8 CALM 0 3 1018.9 - 0.0 - - - - - - -
29/08:00am 20.4 CALM 0 0 1018.8 - 0.0 - - - - - - -
29/07:30am 18.8 SW 5 8 1018.4 - 0.0 - - - - - - -
29/07:00am 16.8 WSW 6 9 1017.9 - 0.0 - - - - - - -
29/06:30am 16.2 WNW 3 6 1017.6 - 0.0 - - - - - - -
29/06:00am 16.1 WNW 2 4 1017.3 - 0.0 - - - - - - -
29/05:30am 16.2 WNW 4 6 1017.0 - 0.0 - - - - - - -
29/05:00am 16.0 W 1 4 1016.7 - 0.0 - - - - - - -
29/04:30am 16.3 WNW 3 6 1016.4 - 0.0 - - - - - - -
29/04:00am 16.3 W 2 5 1016.1 - 0.0 - - - - - - -
29/03:30am 16.3 WNW 3 5 1016.1 - 0.0 - - - - - - -
29/03:00am 16.4 NNW 1 4 1016.1 - 0.0 - - - - - - -
29/02:30am 16.5 WNW 3 4 1016.5 - 0.0 - - - - - - -
29/02:00am 16.4 W 3 5 1016.7 - 0.0 - - - - - - -
29/01:30am 16.6 WNW 2 4 1016.9 - 0.0 - - - - - - -
29/01:00am 16.9 W 2 5 1017.2 - 0.0 - - - - - - -
29/12:30am 17.1 W 3 5 1017.5 - 0.0 - - - - - - -
29/12:00am 17.3 WNW 4 6 1017.6 - 0.0 - - - - - - -
 
Date/Time
EST
Temp

°C
Wind Pressure Rain
since 9am
mm
Weather Cloud Vis
km
Sea
Height
m
Swell
Dir
 
Speed
knots
Gust
knots
hPa Trend Height
m
Period
s
Dir
28/11:30pm 17.0 WNW 3 5 1017.9 - 0.0 - - - - - - -
28/11:00pm 17.3 W 3 5 1018.1 - 0.0 - - - - - - -
28/10:30pm 17.8 W 4 6 1018.3 - 0.0 - - - - - - -
28/10:00pm 18.2 WNW 3 5 1018.5 - 0.0 - - - - - - -
28/09:30pm 18.7 W 4 6 1018.5 - 0.0 - - - - - - -
28/09:00pm 19.0 W 4 6 1018.3 - 0.0 - - - - - - -
28/08:30pm 19.2 W 4 6 1018.2 - 0.0 - - - - - - -
28/08:00pm 19.5 SSW 1 6 1017.9 - 0.0 - - - - - - -
28/07:30pm 20.2 CALM 0 0 1017.6 - 0.0 - - - - - - -
28/07:00pm 21.6 CALM 0 3 1017.3 - 0.0 - - - - - - -
28/06:30pm 22.5 SSE 2 4 1016.9 - 0.0 - - - - - - -
28/06:00pm 23.6 SSE 4 6 1016.3 - 0.0 - - - - - - -
28/05:30pm 24.8 ESE 6 8 1016.1 - 0.0 - - - - - - -
28/05:00pm 25.4 ESE 8 10 1015.9 - 0.0 - - - - - - -

Other Formats:

Comma delimited format used in spreadsheet applications
http://www.bom.gov.au/fwo/IDQ60701/IDQ60701.95292.axf

JavaScript Object Notation format (JSON) in row-major order
http://www.bom.gov.au/fwo/IDQ60701/IDQ60701.95292.json